Accueil
METAR-TAF:

METAR-TAF

Aéroports :

Aéroport de Strasbourg-Entzheim

Strasbourg, France

latitude: 48-33N, longitude: 007-38E, altitude: 153 m

Observation

Le bulletin a été fait il y a 26 minutes, à 21:30 UTC
Vent 3 kt de nord
Température 17°C
Humidité 72%
Pression 1024 hPa
Visibilité 10 km ou plus
pas de nuages en-dessous de 1500 mètres et pas de cumulonimbus.

METAR: LFST 222130Z AUTO 01003KT CAVOK 17/12 Q1024 NOSIG

Heure: 23:56 (21:56 UTC)

Prévision

Le bulletin a été fait il y a 4 heures et 56 minutes, à 17:00 UTC
Prévision valable du 22 à 18 UTC au 23 à 18 UTC
Vent 5 kt de nord/nord-est
Visibilité 10 km ou plus
pas de nuages en-dessous de 1500 mètres et pas de cumulonimbus.

TAF: LFST 221700Z 2218/2318 02005KT CAVOK

Observations et prévisions météorologiques de plus de 4000 aéroports (messages METAR et TAF).

Les stations disponibles sont représentées par des disques jaunes et rouges sur la carte.

Passer la souris dessus pour voir le nom de la station.

Cliquer dessus pour voir les observations et prévisions météorologiques.

Pour changer de carte: cliquez sur les boutons verts avec une croix noire pour zoomer, sur le bouton vert avec un tiret pour effectuer un zoom arrière, ou sur les flèches vertes pour les cartes adjacentes.


METAR-TAF: